sensor_id;sensor_type;location;lat;lon;timestamp;pressure;altitude;pressure_sealevel;temperature;humidity
44044;BME280;29709;52.396;16.796;2023-05-12T00:02:13;102050.62;;;15.10;41.58
44044;BME280;29709;52.396;16.796;2023-05-12T00:05:26;102047.50;;;15.05;41.63
44044;BME280;29709;52.396;16.796;2023-05-12T00:08:41;102043.66;;;14.98;41.96
44044;BME280;29709;52.396;16.796;2023-05-12T00:11:55;102047.59;;;14.87;41.95
44044;BME280;29709;52.396;16.796;2023-05-12T00:15:08;102050.18;;;14.81;42.33
44044;BME280;29709;52.396;16.796;2023-05-12T00:18:22;102044.63;;;14.81;42.12
44044;BME280;29709;52.396;16.796;2023-05-12T00:21:35;102045.50;;;14.81;42.19
44044;BME280;29709;52.396;16.796;2023-05-12T00:24:48;102044.63;;;14.81;42.19
44044;BME280;29709;52.396;16.796;2023-05-12T00:28:01;102033.70;;;14.79;42.03
44044;BME280;29709;52.396;16.796;2023-05-12T00:31:16;102042.35;;;14.76;41.94
44044;BME280;29709;52.396;16.796;2023-05-12T00:34:29;102034.73;;;14.70;42.35
44044;BME280;29709;52.396;16.796;2023-05-12T00:37:42;102033.13;;;14.67;42.10
44044;BME280;29709;52.396;16.796;2023-05-12T00:40:56;102040.04;;;14.63;42.27
44044;BME280;29709;52.396;16.796;2023-05-12T00:44:09;102039.02;;;14.64;42.24
44044;BME280;29709;52.396;16.796;2023-05-12T00:47:22;102047.64;;;14.61;42.46
44044;BME280;29709;52.396;16.796;2023-05-12T00:50:36;102046.22;;;14.57;42.61
44044;BME280;29709;52.396;16.796;2023-05-12T00:53:49;102044.83;;;14.53;42.38
44044;BME280;29709;52.396;16.796;2023-05-12T00:57:03;102047.92;;;14.50;42.95
44044;BME280;29709;52.396;16.796;2023-05-12T01:00:17;102045.63;;;14.46;42.81
44044;BME280;29709;52.396;16.796;2023-05-12T01:03:30;102050.77;;;14.40;42.92
44044;BME280;29709;52.396;16.796;2023-05-12T01:06:55;102049.15;;;14.30;43.39
44044;BME280;29709;52.396;16.796;2023-05-12T01:10:19;102060.51;;;14.27;43.66
44044;BME280;29709;52.396;16.796;2023-05-12T01:13:32;102050.48;;;14.26;43.47
44044;BME280;29709;52.396;16.796;2023-05-12T01:16:51;102056.68;;;14.20;43.53
44044;BME280;29709;52.396;16.796;2023-05-12T01:20:06;102057.47;;;14.12;43.67
44044;BME280;29709;52.396;16.796;2023-05-12T01:23:23;102053.45;;;14.06;44.16
44044;BME280;29709;52.396;16.796;2023-05-12T01:26:39;102067.40;;;13.97;43.59
44044;BME280;29709;52.396;16.796;2023-05-12T01:29:55;102061.09;;;13.86;44.38
44044;BME280;29709;52.396;16.796;2023-05-12T01:33:09;102059.88;;;13.89;44.06
44044;BME280;29709;52.396;16.796;2023-05-12T01:36:22;102061.95;;;13.87;44.23
44044;BME280;29709;52.396;16.796;2023-05-12T01:39:36;102063.10;;;13.84;44.67
44044;BME280;29709;52.396;16.796;2023-05-12T01:42:49;102065.87;;;13.84;44.42
44044;BME280;29709;52.396;16.796;2023-05-12T01:46:02;102061.38;;;13.83;44.68
44044;BME280;29709;52.396;16.796;2023-05-12T01:49:15;102069.59;;;13.75;44.69
44044;BME280;29709;52.396;16.796;2023-05-12T01:52:29;102069.11;;;13.62;45.27
44044;BME280;29709;52.396;16.796;2023-05-12T01:55:42;102076.55;;;13.62;44.74
44044;BME280;29709;52.396;16.796;2023-05-12T01:59:01;102073.55;;;13.55;44.77
44044;BME280;29709;52.396;16.796;2023-05-12T02:02:14;102085.05;;;13.50;44.86
44044;BME280;29709;52.396;16.796;2023-05-12T02:05:27;102076.67;;;13.42;45.01
44044;BME280;29709;52.396;16.796;2023-05-12T02:08:41;102074.40;;;13.38;45.75
44044;BME280;29709;52.396;16.796;2023-05-12T02:11:54;102078.19;;;13.37;45.70
44044;BME280;29709;52.396;16.796;2023-05-12T02:15:08;102078.47;;;13.34;45.58
44044;BME280;29709;52.396;16.796;2023-05-12T02:18:21;102091.34;;;13.25;45.61
44044;BME280;29709;52.396;16.796;2023-05-12T02:21:34;102089.88;;;13.21;45.48
44044;BME280;29709;52.396;16.796;2023-05-12T02:24:48;102090.93;;;13.10;46.16
44044;BME280;29709;52.396;16.796;2023-05-12T02:28:01;102091.80;;;13.11;45.68
44044;BME280;29709;52.396;16.796;2023-05-12T02:31:14;102095.74;;;13.08;45.77
44044;BME280;29709;52.396;16.796;2023-05-12T02:34:27;102102.13;;;13.09;46.41
44044;BME280;29709;52.396;16.796;2023-05-12T02:37:40;102097.64;;;13.08;45.89
44044;BME280;29709;52.396;16.796;2023-05-12T02:40:53;102098.34;;;13.10;45.56
44044;BME280;29709;52.396;16.796;2023-05-12T02:44:07;102098.11;;;13.03;46.51
44044;BME280;29709;52.396;16.796;2023-05-12T02:47:20;102100.13;;;13.01;45.87
44044;BME280;29709;52.396;16.796;2023-05-12T02:50:33;102103.91;;;13.00;46.30
44044;BME280;29709;52.396;16.796;2023-05-12T02:53:46;102100.76;;;12.95;46.04
44044;BME280;29709;52.396;16.796;2023-05-12T02:57:03;102101.94;;;12.92;45.98
44044;BME280;29709;52.396;16.796;2023-05-12T03:00:17;102107.73;;;12.89;46.20
44044;BME280;29709;52.396;16.796;2023-05-12T03:03:30;102101.66;;;12.86;46.15
44044;BME280;29709;52.396;16.796;2023-05-12T03:06:44;102099.34;;;12.81;46.84
44044;BME280;29709;52.396;16.796;2023-05-12T03:09:57;102108.95;;;12.77;46.78
44044;BME280;29709;52.396;16.796;2023-05-12T03:13:10;102098.66;;;12.69;47.05
44044;BME280;29709;52.396;16.796;2023-05-12T03:16:24;102094.17;;;12.68;47.32
44044;BME280;29709;52.396;16.796;2023-05-12T03:19:37;102106.07;;;12.69;46.88
44044;BME280;29709;52.396;16.796;2023-05-12T03:22:50;102104.02;;;12.71;47.06
44044;BME280;29709;52.396;16.796;2023-05-12T03:26:03;102105.48;;;12.75;46.87
44044;BME280;29709;52.396;16.796;2023-05-12T03:29:16;102100.13;;;12.74;46.98
44044;BME280;29709;52.396;16.796;2023-05-12T03:32:30;102105.91;;;12.70;46.78
44044;BME280;29709;52.396;16.796;2023-05-12T03:35:43;102107.81;;;12.70;47.23
44044;BME280;29709;52.396;16.796;2023-05-12T03:38:56;102101.74;;;12.66;47.52
44044;BME280;29709;52.396;16.796;2023-05-12T03:42:09;102106.66;;;12.73;46.99
44044;BME280;29709;52.396;16.796;2023-05-12T03:45:22;102113.05;;;12.73;46.92
44044;BME280;29709;52.396;16.796;2023-05-12T03:48:35;102110.28;;;12.73;46.93
44044;BME280;29709;52.396;16.796;2023-05-12T03:51:50;102120.42;;;12.82;46.93
44044;BME280;29709;52.396;16.796;2023-05-12T03:55:04;102115.46;;;12.86;47.33
44044;BME280;29709;52.396;16.796;2023-05-12T03:58:18;102125.74;;;12.93;47.00
44044;BME280;29709;52.396;16.796;2023-05-12T04:01:31;102121.80;;;12.96;46.80
44044;BME280;29709;52.396;16.796;2023-05-12T04:04:45;102121.50;;;12.99;46.96
44044;BME280;29709;52.396;16.796;2023-05-12T04:07:58;102118.43;;;13.02;46.84
44044;BME280;29709;52.396;16.796;2023-05-12T04:11:11;102122.20;;;13.01;47.01
44044;BME280;29709;52.396;16.796;2023-05-12T04:14:24;102129.18;;;13.05;46.73
44044;BME280;29709;52.396;16.796;2023-05-12T04:17:37;102136.13;;;13.09;46.75
44044;BME280;29709;52.396;16.796;2023-05-12T04:20:50;102134.82;;;13.13;46.53
44044;BME280;29709;52.396;16.796;2023-05-12T04:24:04;102138.45;;;13.14;46.60
44044;BME280;29709;52.396;16.796;2023-05-12T04:27:18;102134.06;;;13.21;46.64
44044;BME280;29709;52.396;16.796;2023-05-12T04:30:31;102142.50;;;13.19;46.49
44044;BME280;29709;52.396;16.796;2023-05-12T04:33:44;102146.24;;;13.28;46.48
44044;BME280;29709;52.396;16.796;2023-05-12T04:36:57;102142.41;;;13.39;46.25
44044;BME280;29709;52.396;16.796;2023-05-12T04:40:10;102148.91;;;13.47;46.48
44044;BME280;29709;52.396;16.796;2023-05-12T04:43:24;102145.49;;;13.53;45.96
44044;BME280;29709;52.396;16.796;2023-05-12T04:46:37;102150.42;;;13.60;45.70
44044;BME280;29709;52.396;16.796;2023-05-12T04:49:50;102140.49;;;13.67;46.51
44044;BME280;29709;52.396;16.796;2023-05-12T04:53:03;102154.30;;;13.84;45.81
44044;BME280;29709;52.396;16.796;2023-05-12T04:56:17;102152.17;;;13.96;45.17
44044;BME280;29709;52.396;16.796;2023-05-12T04:59:30;102155.09;;;13.95;45.20
44044;BME280;29709;52.396;16.796;2023-05-12T05:02:44;102156.21;;;14.02;45.15
44044;BME280;29709;52.396;16.796;2023-05-12T05:05:58;102161.05;;;14.18;45.20
44044;BME280;29709;52.396;16.796;2023-05-12T05:09:11;102160.63;;;14.30;44.88
44044;BME280;29709;52.396;16.796;2023-05-12T05:12:25;102159.75;;;14.48;44.93
44044;BME280;29709;52.396;16.796;2023-05-12T05:15:38;102156.42;;;14.62;43.79
44044;BME280;29709;52.396;16.796;2023-05-12T05:18:51;102151.32;;;14.75;43.89
44044;BME280;29709;52.396;16.796;2023-05-12T05:22:04;102156.13;;;14.99;43.93
44044;BME280;29709;52.396;16.796;2023-05-12T05:25:17;102157.31;;;15.22;42.84
44044;BME280;29709;52.396;16.796;2023-05-12T05:28:30;102153.70;;;15.64;42.76
44044;BME280;29709;52.396;16.796;2023-05-12T05:31:44;102147.67;;;15.93;42.11
44044;BME280;29709;52.396;16.796;2023-05-12T05:34:57;102144.43;;;16.30;41.49
44044;BME280;29709;52.396;16.796;2023-05-12T05:38:10;102143.00;;;16.67;40.94
44044;BME280;29709;52.396;16.796;2023-05-12T05:41:24;102151.34;;;16.91;40.57
44044;BME280;29709;52.396;16.796;2023-05-12T05:44:37;102157.88;;;17.07;40.26
44044;BME280;29709;52.396;16.796;2023-05-12T05:47:51;102168.38;;;17.36;40.86
44044;BME280;29709;52.396;16.796;2023-05-12T05:51:05;102167.77;;;17.56;39.54
44044;BME280;29709;52.396;16.796;2023-05-12T05:54:18;102170.14;;;17.76;39.38
44044;BME280;29709;52.396;16.796;2023-05-12T05:57:31;102166.26;;;17.85;39.41
44044;BME280;29709;52.396;16.796;2023-05-12T06:00:44;102173.11;;;17.66;38.16
44044;BME280;29709;52.396;16.796;2023-05-12T06:03:58;102166.34;;;17.60;39.22
44044;BME280;29709;52.396;16.796;2023-05-12T06:07:11;102182.91;;;17.93;38.77
44044;BME280;29709;52.396;16.796;2023-05-12T06:10:24;102175.20;;;18.03;38.19
44044;BME280;29709;52.396;16.796;2023-05-12T06:13:37;102180.48;;;17.90;37.82
44044;BME280;29709;52.396;16.796;2023-05-12T06:16:50;102189.87;;;17.89;39.04
44044;BME280;29709;52.396;16.796;2023-05-12T06:20:04;102184.26;;;17.97;37.87
44044;BME280;29709;52.396;16.796;2023-05-12T06:23:19;102181.10;;;18.00;37.42
44044;BME280;29709;52.396;16.796;2023-05-12T06:26:32;102191.95;;;18.18;38.05
44044;BME280;29709;52.396;16.796;2023-05-12T06:29:45;102187.05;;;18.43;37.77
44044;BME280;29709;52.396;16.796;2023-05-12T06:32:58;102196.78;;;18.70;37.60
44044;BME280;29709;52.396;16.796;2023-05-12T06:36:12;102190.16;;;18.71;37.86
44044;BME280;29709;52.396;16.796;2023-05-12T06:39:25;102183.72;;;18.70;37.62
44044;BME280;29709;52.396;16.796;2023-05-12T06:42:38;102196.26;;;18.89;37.47
44044;BME280;29709;52.396;16.796;2023-05-12T06:45:52;102196.53;;;18.94;36.85
44044;BME280;29709;52.396;16.796;2023-05-12T06:49:05;102190.41;;;19.14;37.54
44044;BME280;29709;52.396;16.796;2023-05-12T06:52:18;102192.37;;;19.28;36.99
44044;BME280;29709;52.396;16.796;2023-05-12T06:55:35;102188.41;;;19.22;36.35
44044;BME280;29709;52.396;16.796;2023-05-12T06:58:48;102192.81;;;19.46;36.73
44044;BME280;29709;52.396;16.796;2023-05-12T07:02:02;102198.90;;;19.65;36.39
44044;BME280;29709;52.396;16.796;2023-05-12T07:05:15;102194.45;;;19.85;35.86
44044;BME280;29709;52.396;16.796;2023-05-12T07:08:28;102198.74;;;20.02;36.22
44044;BME280;29709;52.396;16.796;2023-05-12T07:11:41;102192.35;;;20.08;35.67
44044;BME280;29709;52.396;16.796;2023-05-12T07:14:55;102190.92;;;20.12;35.51
44044;BME280;29709;52.396;16.796;2023-05-12T07:18:08;102189.45;;;20.38;35.62
44044;BME280;29709;52.396;16.796;2023-05-12T07:21:22;102191.95;;;20.48;35.85
44044;BME280;29709;52.396;16.796;2023-05-12T07:24:36;102191.00;;;20.62;35.42
44044;BME280;29709;52.396;16.796;2023-05-12T07:27:50;102180.76;;;20.69;34.85
44044;BME280;29709;52.396;16.796;2023-05-12T07:31:04;102181.48;;;20.78;35.24
44044;BME280;29709;52.396;16.796;2023-05-12T07:34:19;102182.72;;;20.96;35.02
44044;BME280;29709;52.396;16.796;2023-05-12T07:37:33;102184.47;;;21.04;33.90
44044;BME280;29709;52.396;16.796;2023-05-12T07:40:46;102187.61;;;20.94;34.27
44044;BME280;29709;52.396;16.796;2023-05-12T07:44:00;102182.02;;;20.94;33.83
44044;BME280;29709;52.396;16.796;2023-05-12T07:47:14;102186.15;;;20.98;33.70
44044;BME280;29709;52.396;16.796;2023-05-12T07:50:27;102187.43;;;20.96;33.13
44044;BME280;29709;52.396;16.796;2023-05-12T07:53:41;102186.60;;;21.02;33.42
44044;BME280;29709;52.396;16.796;2023-05-12T07:56:54;102188.30;;;20.96;34.19
44044;BME280;29709;52.396;16.796;2023-05-12T08:00:08;102177.35;;;21.01;33.71
44044;BME280;29709;52.396;16.796;2023-05-12T08:03:22;102173.19;;;21.19;34.08
44044;BME280;29709;52.396;16.796;2023-05-12T08:06:36;102177.79;;;21.26;33.55
44044;BME280;29709;52.396;16.796;2023-05-12T08:09:49;102182.74;;;21.31;32.64
44044;BME280;29709;52.396;16.796;2023-05-12T08:13:02;102175.65;;;21.28;32.61
44044;BME280;29709;52.396;16.796;2023-05-12T08:16:15;102175.66;;;21.35;33.28
44044;BME280;29709;52.396;16.796;2023-05-12T08:19:29;102173.73;;;21.36;33.21
44044;BME280;29709;52.396;16.796;2023-05-12T08:22:42;102194.75;;;21.59;31.50
44044;BME280;29709;52.396;16.796;2023-05-12T08:27:23;102167.37;;;21.48;31.98
44044;BME280;29709;52.396;16.796;2023-05-12T08:30:36;102173.02;;;21.61;32.16
44044;BME280;29709;52.396;16.796;2023-05-12T08:33:50;102181.79;;;22.00;31.66
44044;BME280;29709;52.396;16.796;2023-05-12T08:37:03;102190.69;;;22.10;31.01
44044;BME280;29709;52.396;16.796;2023-05-12T08:40:20;102190.20;;;22.00;30.75
44044;BME280;29709;52.396;16.796;2023-05-12T08:43:42;102180.06;;;22.05;30.98
44044;BME280;29709;52.396;16.796;2023-05-12T08:46:56;102188.25;;;22.00;31.07
44044;BME280;29709;52.396;16.796;2023-05-12T08:50:11;102193.02;;;22.06;30.36
44044;BME280;29709;52.396;16.796;2023-05-12T08:53:26;102192.62;;;22.16;29.95
44044;BME280;29709;52.396;16.796;2023-05-12T08:56:41;102183.39;;;22.22;29.90
44044;BME280;29709;52.396;16.796;2023-05-12T08:59:55;102178.87;;;22.28;30.42
44044;BME280;29709;52.396;16.796;2023-05-12T09:03:12;102181.04;;;22.32;30.48
44044;BME280;29709;52.396;16.796;2023-05-12T09:06:26;102182.10;;;22.25;29.48
44044;BME280;29709;52.396;16.796;2023-05-12T09:09:43;102169.30;;;22.02;28.59
44044;BME280;29709;52.396;16.796;2023-05-12T09:13:02;102185.02;;;22.03;27.98
44044;BME280;29709;52.396;16.796;2023-05-12T09:16:21;102181.64;;;22.14;28.92
44044;BME280;29709;52.396;16.796;2023-05-12T09:19:35;102188.53;;;22.12;28.70
44044;BME280;29709;52.396;16.796;2023-05-12T09:22:49;102196.31;;;22.23;28.50
44044;BME280;29709;52.396;16.796;2023-05-12T09:26:02;102182.76;;;22.33;28.38
44044;BME280;29709;52.396;16.796;2023-05-12T09:29:16;102181.88;;;22.26;29.48
44044;BME280;29709;52.396;16.796;2023-05-12T09:32:31;102181.27;;;22.31;28.53
44044;BME280;29709;52.396;16.796;2023-05-12T09:35:45;102182.99;;;22.45;29.08
44044;BME280;29709;52.396;16.796;2023-05-12T09:39:05;102189.69;;;22.57;28.80
44044;BME280;29709;52.396;16.796;2023-05-12T09:42:20;102186.45;;;22.67;28.85
44044;BME280;29709;52.396;16.796;2023-05-12T09:45:35;102190.12;;;22.67;28.85
44044;BME280;29709;52.396;16.796;2023-05-12T09:48:48;102168.58;;;22.74;29.03
44044;BME280;29709;52.396;16.796;2023-05-12T09:52:03;102182.35;;;22.69;27.97
44044;BME280;29709;52.396;16.796;2023-05-12T09:55:16;102185.37;;;22.41;28.55
44044;BME280;29709;52.396;16.796;2023-05-12T09:58:30;102186.88;;;22.44;28.77
44044;BME280;29709;52.396;16.796;2023-05-12T10:01:44;102187.29;;;22.34;28.49
44044;BME280;29709;52.396;16.796;2023-05-12T10:04:59;102182.13;;;22.44;28.15
44044;BME280;29709;52.396;16.796;2023-05-12T10:08:20;102178.70;;;22.56;28.56
44044;BME280;29709;52.396;16.796;2023-05-12T10:11:36;102172.01;;;22.57;28.68
44044;BME280;29709;52.396;16.796;2023-05-12T10:14:50;102163.38;;;22.71;28.58
44044;BME280;29709;52.396;16.796;2023-05-12T10:18:04;102160.81;;;22.90;28.03
44044;BME280;29709;52.396;16.796;2023-05-12T10:21:18;102164.48;;;22.90;27.82
44044;BME280;29709;52.396;16.796;2023-05-12T10:24:32;102163.38;;;22.78;27.79
44044;BME280;29709;52.396;16.796;2023-05-12T10:27:47;102151.73;;;22.81;27.42
44044;BME280;29709;52.396;16.796;2023-05-12T10:31:02;102162.95;;;22.68;27.51
44044;BME280;29709;52.396;16.796;2023-05-12T10:34:17;102164.24;;;22.79;27.49
44044;BME280;29709;52.396;16.796;2023-05-12T10:37:35;102160.41;;;22.93;26.49
44044;BME280;29709;52.396;16.796;2023-05-12T10:40:57;102152.86;;;22.93;27.13
44044;BME280;29709;52.396;16.796;2023-05-12T10:44:11;102153.28;;;23.03;27.21
44044;BME280;29709;52.396;16.796;2023-05-12T10:50:52;102160.76;;;23.36;26.85
44044;BME280;29709;52.396;16.796;2023-05-12T10:54:08;102149.70;;;23.48;26.27
44044;BME280;29709;52.396;16.796;2023-05-12T10:57:21;102160.02;;;23.54;26.67
44044;BME280;29709;52.396;16.796;2023-05-12T11:00:42;102156.63;;;23.45;26.07
44044;BME280;29709;52.396;16.796;2023-05-12T11:04:08;102154.48;;;23.34;27.08
44044;BME280;29709;52.396;16.796;2023-05-12T11:07:18;102148.45;;;23.24;27.36
44044;BME280;29709;52.396;16.796;2023-05-12T11:10:32;102141.96;;;23.37;27.05
44044;BME280;29709;52.396;16.796;2023-05-12T11:13:45;102163.97;;;23.40;27.36
44044;BME280;29709;52.396;16.796;2023-05-12T11:16:59;102144.96;;;23.42;27.83
44044;BME280;29709;52.396;16.796;2023-05-12T11:20:21;102144.54;;;23.45;27.46
44044;BME280;29709;52.396;16.796;2023-05-12T11:23:35;102136.60;;;23.22;27.45
44044;BME280;29709;52.396;16.796;2023-05-12T11:26:49;102136.60;;;23.22;28.18
44044;BME280;29709;52.396;16.796;2023-05-12T11:30:09;102136.41;;;23.17;27.23
44044;BME280;29709;52.396;16.796;2023-05-12T11:33:23;102146.33;;;23.13;27.95
44044;BME280;29709;52.396;16.796;2023-05-12T11:36:38;102151.34;;;23.04;28.17
44044;BME280;29709;52.396;16.796;2023-05-12T11:39:51;102136.23;;;23.05;28.75
44044;BME280;29709;52.396;16.796;2023-05-12T11:43:08;102121.49;;;23.29;28.59
44044;BME280;29709;52.396;16.796;2023-05-12T11:46:23;102137.15;;;23.57;28.69
44044;BME280;29709;52.396;16.796;2023-05-12T11:49:48;102141.01;;;23.69;28.39
44044;BME280;29709;52.396;16.796;2023-05-12T11:53:02;102131.68;;;23.75;28.31
44044;BME280;29709;52.396;16.796;2023-05-12T11:56:22;102129.45;;;23.90;28.19
44044;BME280;29709;52.396;16.796;2023-05-12T11:59:36;102133.23;;;24.09;27.95
44044;BME280;29709;52.396;16.796;2023-05-12T12:02:49;102145.89;;;23.87;26.99
44044;BME280;29709;52.396;16.796;2023-05-12T12:06:03;102133.15;;;23.84;27.32
44044;BME280;29709;52.396;16.796;2023-05-12T12:09:31;102144.03;;;24.06;26.56
44044;BME280;29709;52.396;16.796;2023-05-12T12:12:44;102142.55;;;24.03;26.74
44044;BME280;29709;52.396;16.796;2023-05-12T12:15:58;102143.60;;;24.09;26.26
44044;BME280;29709;52.396;16.796;2023-05-12T12:19:11;102130.36;;;24.16;26.14
44044;BME280;29709;52.396;16.796;2023-05-12T12:22:25;102136.00;;;23.78;26.40
44044;BME280;29709;52.396;16.796;2023-05-12T12:25:38;102134.55;;;23.62;27.08
44044;BME280;29709;52.396;16.796;2023-05-12T12:28:52;102131.05;;;23.73;27.22
44044;BME280;29709;52.396;16.796;2023-05-12T12:32:05;102130.64;;;23.70;27.36
44044;BME280;29709;52.396;16.796;2023-05-12T12:35:18;102127.44;;;23.66;27.38
44044;BME280;29709;52.396;16.796;2023-05-12T12:38:31;102127.97;;;23.88;27.08
44044;BME280;29709;52.396;16.796;2023-05-12T12:41:45;102123.60;;;23.92;27.26
44044;BME280;29709;52.396;16.796;2023-05-12T12:44:59;102133.98;;;23.92;27.23
44044;BME280;29709;52.396;16.796;2023-05-12T12:48:12;102124.30;;;23.87;27.33
44044;BME280;29709;52.396;16.796;2023-05-12T12:51:26;102119.06;;;23.98;27.37
44044;BME280;29709;52.396;16.796;2023-05-12T12:54:39;102122.63;;;24.11;27.12
44044;BME280;29709;52.396;16.796;2023-05-12T12:57:53;102112.65;;;24.15;27.44
44044;BME280;29709;52.396;16.796;2023-05-12T13:01:06;102119.59;;;24.13;27.22
44044;BME280;29709;52.396;16.796;2023-05-12T13:04:21;102116.76;;;23.81;27.17
44044;BME280;29709;52.396;16.796;2023-05-12T13:07:35;102116.42;;;23.58;26.88
44044;BME280;29709;52.396;16.796;2023-05-12T13:10:48;102115.34;;;23.66;26.78
44044;BME280;29709;52.396;16.796;2023-05-12T13:14:01;102101.46;;;23.77;26.82
44044;BME280;29709;52.396;16.796;2023-05-12T13:17:18;102101.11;;;23.99;26.89
44044;BME280;29709;52.396;16.796;2023-05-12T13:20:31;102088.52;;;24.08;26.83
44044;BME280;29709;52.396;16.796;2023-05-12T13:23:45;102104.69;;;24.12;27.27
44044;BME280;29709;52.396;16.796;2023-05-12T13:26:58;102105.54;;;24.13;27.01
44044;BME280;29709;52.396;16.796;2023-05-12T13:30:11;102102.40;;;23.96;26.58
44044;BME280;29709;52.396;16.796;2023-05-12T13:33:25;102093.12;;;23.96;27.26
44044;BME280;29709;52.396;16.796;2023-05-12T13:36:39;102090.50;;;24.01;27.51
44044;BME280;29709;52.396;16.796;2023-05-12T13:39:52;102087.07;;;23.99;26.99
44044;BME280;29709;52.396;16.796;2023-05-12T13:43:06;102084.62;;;24.09;27.57
44044;BME280;29709;52.396;16.796;2023-05-12T13:46:20;102087.99;;;23.86;27.42
44044;BME280;29709;52.396;16.796;2023-05-12T13:49:35;102087.68;;;23.69;27.11
44044;BME280;29709;52.396;16.796;2023-05-12T13:52:51;102086.59;;;23.70;27.79
44044;BME280;29709;52.396;16.796;2023-05-12T13:56:05;102086.48;;;23.90;27.87
44044;BME280;29709;52.396;16.796;2023-05-12T13:59:19;102098.17;;;24.18;27.40
44044;BME280;29709;52.396;16.796;2023-05-12T14:02:32;102092.48;;;24.32;27.21
44044;BME280;29709;52.396;16.796;2023-05-12T14:05:46;102087.96;;;24.24;27.25
44044;BME280;29709;52.396;16.796;2023-05-12T14:08:59;102091.63;;;24.25;27.38
44044;BME280;29709;52.396;16.796;2023-05-12T14:12:12;102081.81;;;24.09;27.21
44044;BME280;29709;52.396;16.796;2023-05-12T14:15:25;102086.77;;;24.07;27.77
44044;BME280;29709;52.396;16.796;2023-05-12T14:18:39;102089.66;;;24.00;27.34
44044;BME280;29709;52.396;16.796;2023-05-12T14:21:52;102086.48;;;23.90;27.06
44044;BME280;29709;52.396;16.796;2023-05-12T14:25:06;102088.66;;;23.88;27.63
44044;BME280;29709;52.396;16.796;2023-05-12T14:28:19;102096.16;;;23.94;27.55
44044;BME280;29709;52.396;16.796;2023-05-12T14:31:35;102083.11;;;24.06;26.82
44044;BME280;29709;52.396;16.796;2023-05-12T14:34:48;102083.11;;;24.06;26.34
44044;BME280;29709;52.396;16.796;2023-05-12T14:38:01;102098.24;;;24.05;27.35
44044;BME280;29709;52.396;16.796;2023-05-12T14:41:14;102090.17;;;23.84;27.58
44044;BME280;29709;52.396;16.796;2023-05-12T14:44:28;102088.28;;;23.78;27.38
44044;BME280;29709;52.396;16.796;2023-05-12T14:47:41;102079.14;;;23.89;27.25
44044;BME280;29709;52.396;16.796;2023-05-12T14:50:55;102091.23;;;23.89;27.42
44044;BME280;29709;52.396;16.796;2023-05-12T14:54:08;102087.45;;;23.71;27.78
44044;BME280;29709;52.396;16.796;2023-05-12T14:57:21;102090.95;;;23.66;27.70
44044;BME280;29709;52.396;16.796;2023-05-12T15:00:35;102089.24;;;23.58;27.52
44044;BME280;29709;52.396;16.796;2023-05-12T15:03:48;102090.31;;;23.51;27.59
44044;BME280;29709;52.396;16.796;2023-05-12T15:07:02;102091.82;;;23.60;28.15
44044;BME280;29709;52.396;16.796;2023-05-12T15:10:16;102089.41;;;23.64;28.11
44044;BME280;29709;52.396;16.796;2023-05-12T15:13:30;102086.73;;;23.82;28.32
44044;BME280;29709;52.396;16.796;2023-05-12T15:16:43;102093.34;;;23.94;27.37
44044;BME280;29709;52.396;16.796;2023-05-12T15:19:56;102089.75;;;23.87;27.35
44044;BME280;29709;52.396;16.796;2023-05-12T15:23:10;102097.62;;;23.65;27.12
44044;BME280;29709;52.396;16.796;2023-05-12T15:26:23;102083.16;;;23.55;27.88
44044;BME280;29709;52.396;16.796;2023-05-12T15:29:37;102088.58;;;23.56;27.76
44044;BME280;29709;52.396;16.796;2023-05-12T15:32:50;102092.91;;;23.59;27.61
44044;BME280;29709;52.396;16.796;2023-05-12T15:36:05;102087.91;;;23.54;27.86
44044;BME280;29709;52.396;16.796;2023-05-12T15:39:23;102091.64;;;23.48;27.64
44044;BME280;29709;52.396;16.796;2023-05-12T15:42:37;102101.13;;;23.47;27.84
44044;BME280;29709;52.396;16.796;2023-05-12T15:45:51;102096.47;;;23.28;28.00
44044;BME280;29709;52.396;16.796;2023-05-12T15:49:04;102104.26;;;23.19;27.89
44044;BME280;29709;52.396;16.796;2023-05-12T15:52:18;102101.67;;;23.18;28.29
44044;BME280;29709;52.396;16.796;2023-05-12T15:55:31;102101.89;;;23.16;27.69
44044;BME280;29709;52.396;16.796;2023-05-12T15:58:45;102091.59;;;23.03;27.76
44044;BME280;29709;52.396;16.796;2023-05-12T16:01:58;102089.63;;;23.04;28.06
44044;BME280;29709;52.396;16.796;2023-05-12T16:05:11;102088.98;;;23.09;28.39
44044;BME280;29709;52.396;16.796;2023-05-12T16:08:24;102090.69;;;23.10;27.92
44044;BME280;29709;52.396;16.796;2023-05-12T16:11:39;102103.22;;;23.00;28.09
44044;BME280;29709;52.396;16.796;2023-05-12T16:14:52;102096.78;;;22.87;27.74
44044;BME280;29709;52.396;16.796;2023-05-12T16:18:05;102093.54;;;22.76;28.55
44044;BME280;29709;52.396;16.796;2023-05-12T16:21:20;102092.01;;;22.81;28.50
44044;BME280;29709;52.396;16.796;2023-05-12T16:24:33;102092.01;;;22.81;28.11
44044;BME280;29709;52.396;16.796;2023-05-12T16:27:46;102092.45;;;22.78;28.05
44044;BME280;29709;52.396;16.796;2023-05-12T16:31:01;102086.43;;;22.74;27.81
44044;BME280;29709;52.396;16.796;2023-05-12T16:34:16;102094.38;;;22.70;28.43
44044;BME280;29709;52.396;16.796;2023-05-12T16:37:31;102104.34;;;22.73;28.62
44044;BME280;29709;52.396;16.796;2023-05-12T16:40:44;102101.30;;;22.61;27.95
44044;BME280;29709;52.396;16.796;2023-05-12T16:43:57;102104.12;;;22.55;28.31
44044;BME280;29709;52.396;16.796;2023-05-12T16:47:12;102098.28;;;22.50;28.24